sensor_id;sensor_type;location;lat;lon;timestamp;pressure;altitude;pressure_sealevel;temperature;humidity
69221;BME280;56331;51.992;20.910;2023-02-23T00:00:27;100633.17;;;21.36;30.10
69221;BME280;56331;51.992;20.910;2023-02-23T00:02:58;100632.36;;;21.36;30.13
69221;BME280;56331;51.992;20.910;2023-02-23T00:05:28;100632.36;;;21.36;30.20
69221;BME280;56331;51.992;20.910;2023-02-23T00:07:55;100634.88;;;21.35;30.15
69221;BME280;56331;51.992;20.910;2023-02-23T00:10:23;100634.33;;;21.35;30.17
69221;BME280;56331;51.992;20.910;2023-02-23T00:12:54;100632.94;;;21.35;30.21
69221;BME280;56331;51.992;20.910;2023-02-23T00:15:20;100634.88;;;21.35;30.08
69221;BME280;56331;51.992;20.910;2023-02-23T00:17:46;100630.17;;;21.35;30.03
69221;BME280;56331;51.992;20.910;2023-02-23T00:20:13;100629.10;;;21.34;29.90
69221;BME280;56331;51.992;20.910;2023-02-23T00:22:46;100623.33;;;21.33;29.78
69221;BME280;56331;51.992;20.910;2023-02-23T00:25:19;100623.79;;;21.35;29.98
69221;BME280;56331;51.992;20.910;2023-02-23T00:27:45;100625.09;;;21.37;30.16
69221;BME280;56331;51.992;20.910;2023-02-23T00:30:13;100623.19;;;21.38;30.27
69221;BME280;56331;51.992;20.910;2023-02-23T00:32:40;100626.41;;;21.40;30.29
69221;BME280;56331;51.992;20.910;2023-02-23T00:35:07;100628.06;;;21.41;30.32
69221;BME280;56331;51.992;20.910;2023-02-23T00:37:38;100628.87;;;21.41;30.28
69221;BME280;56331;51.992;20.910;2023-02-23T00:40:05;100625.52;;;21.42;30.27
69221;BME280;56331;51.992;20.910;2023-02-23T00:42:33;100617.46;;;21.43;30.24
69221;BME280;56331;51.992;20.910;2023-02-23T00:45:00;100614.11;;;21.44;30.18
69221;BME280;56331;51.992;20.910;2023-02-23T00:47:28;100608.80;;;21.45;30.12
69221;BME280;56331;51.992;20.910;2023-02-23T00:49:55;100615.98;;;21.46;30.09
69221;BME280;56331;51.992;20.910;2023-02-23T00:52:28;100615.41;;;21.46;30.05
69221;BME280;56331;51.992;20.910;2023-02-23T00:54:54;100604.32;;;21.46;30.09
69221;BME280;56331;51.992;20.910;2023-02-23T00:57:21;100606.52;;;21.47;30.06
69221;BME280;56331;51.992;20.910;2023-02-23T00:59:48;100600.74;;;21.46;30.06
69221;BME280;56331;51.992;20.910;2023-02-23T01:02:14;100602.36;;;21.47;30.05
69221;BME280;56331;51.992;20.910;2023-02-23T01:04:41;100599.59;;;21.47;30.02
69221;BME280;56331;51.992;20.910;2023-02-23T01:07:07;100600.97;;;21.47;30.02
69221;BME280;56331;51.992;20.910;2023-02-23T01:09:38;100599.59;;;21.47;30.00
69221;BME280;56331;51.992;20.910;2023-02-23T01:12:04;100602.59;;;21.48;30.02
69221;BME280;56331;51.992;20.910;2023-02-23T01:14:33;100600.39;;;21.47;29.98
69221;BME280;56331;51.992;20.910;2023-02-23T01:17:00;100599.36;;;21.46;29.87
69221;BME280;56331;51.992;20.910;2023-02-23T01:19:27;100598.52;;;21.45;29.91
69221;BME280;56331;51.992;20.910;2023-02-23T01:21:54;100597.48;;;21.44;29.92
69221;BME280;56331;51.992;20.910;2023-02-23T01:24:20;100598.61;;;21.43;29.86
69221;BME280;56331;51.992;20.910;2023-02-23T01:26:47;100595.03;;;21.42;29.98
69221;BME280;56331;51.992;20.910;2023-02-23T01:29:15;100594.45;;;21.43;29.93
69221;BME280;56331;51.992;20.910;2023-02-23T01:31:45;100596.77;;;21.40;29.81
69221;BME280;56331;51.992;20.910;2023-02-23T01:34:13;100600.09;;;21.40;29.94
69221;BME280;56331;51.992;20.910;2023-02-23T01:36:41;100596.51;;;21.39;29.95
69221;BME280;56331;51.992;20.910;2023-02-23T01:39:11;100593.73;;;21.39;29.94
69221;BME280;56331;51.992;20.910;2023-02-23T01:41:38;100586.58;;;21.38;29.93
69221;BME280;56331;51.992;20.910;2023-02-23T01:46:41;100585.77;;;21.38;29.86
69221;BME280;56331;51.992;20.910;2023-02-23T01:49:12;100584.61;;;21.39;29.94
69221;BME280;56331;51.992;20.910;2023-02-23T01:52:12;100588.77;;;21.39;29.88
69221;BME280;56331;51.992;20.910;2023-02-23T01:54:38;100579.36;;;21.37;29.86
69221;BME280;56331;51.992;20.910;2023-02-23T01:57:06;100587.67;;;21.37;29.90
69221;BME280;56331;51.992;20.910;2023-02-23T01:59:38;100582.13;;;21.37;29.95
69221;BME280;56331;51.992;20.910;2023-02-23T02:02:04;100584.09;;;21.37;29.93
69221;BME280;56331;51.992;20.910;2023-02-23T02:04:37;100582.22;;;21.35;29.94
69221;BME280;56331;51.992;20.910;2023-02-23T02:07:05;100582.57;;;21.33;29.92
69221;BME280;56331;51.992;20.910;2023-02-23T02:09:33;100581.19;;;21.33;29.95
69221;BME280;56331;51.992;20.910;2023-02-23T02:12:01;100579.80;;;21.33;30.02
69221;BME280;56331;51.992;20.910;2023-02-23T02:14:29;100569.84;;;21.32;30.08
69221;BME280;56331;51.992;20.910;2023-02-23T02:20:17;100574.84;;;21.33;29.98
69221;BME280;56331;51.992;20.910;2023-02-23T02:26:03;100577.92;;;21.31;30.11
69221;BME280;56331;51.992;20.910;2023-02-23T02:37:44;100581.59;;;21.29;30.13
69221;BME280;56331;51.992;20.910;2023-02-23T02:53:35;100564.92;;;21.23;29.99
69221;BME280;56331;51.992;20.910;2023-02-23T02:55:52;100569.88;;;21.24;30.04
69221;BME280;56331;51.992;20.910;2023-02-23T02:58:21;100574.39;;;21.22;30.06
69221;BME280;56331;51.992;20.910;2023-02-23T03:00:50;100563.30;;;21.22;30.09
69221;BME280;56331;51.992;20.910;2023-02-23T03:03:43;100568.84;;;21.22;30.06
69221;BME280;56331;51.992;20.910;2023-02-23T03:06:37;100565.50;;;21.23;29.81
69221;BME280;56331;51.992;20.910;2023-02-23T03:18:33;100562.28;;;21.27;28.88
69221;BME280;56331;51.992;20.910;2023-02-23T03:21:21;100559.52;;;21.27;28.74
69221;BME280;56331;51.992;20.910;2023-02-23T03:27:22;100562.06;;;21.26;28.43
69221;BME280;56331;51.992;20.910;2023-02-23T03:30:22;100560.33;;;21.27;28.31
69221;BME280;56331;51.992;20.910;2023-02-23T03:33:18;100551.78;;;21.26;28.16
69221;BME280;56331;51.992;20.910;2023-02-23T03:39:39;100554.88;;;21.25;28.04
69221;BME280;56331;51.992;20.910;2023-02-23T03:41:45;100564.02;;;21.25;27.93
69221;BME280;56331;51.992;20.910;2023-02-23T03:44:35;100565.95;;;21.25;27.73
69221;BME280;56331;51.992;20.910;2023-02-23T03:47:23;100569.30;;;21.24;27.67
69221;BME280;56331;51.992;20.910;2023-02-23T03:50:11;100567.11;;;21.24;27.54
69221;BME280;56331;51.992;20.910;2023-02-23T03:52:58;100567.69;;;21.23;27.50
69221;BME280;56331;51.992;20.910;2023-02-23T03:55:47;100570.46;;;21.23;27.47
69221;BME280;56331;51.992;20.910;2023-02-23T03:58:36;100568.50;;;21.24;27.42
69221;BME280;56331;51.992;20.910;2023-02-23T04:01:20;100569.30;;;21.24;27.40
69221;BME280;56331;51.992;20.910;2023-02-23T04:04:07;100569.66;;;21.23;27.29
69221;BME280;56331;51.992;20.910;2023-02-23T04:06:55;100567.20;;;21.21;27.67
69221;BME280;56331;51.992;20.910;2023-02-23T04:09:41;100572.75;;;21.21;27.87
69221;BME280;56331;51.992;20.910;2023-02-23T04:15:35;100567.64;;;21.17;27.97
69221;BME280;56331;51.992;20.910;2023-02-23T04:18:04;100567.38;;;21.16;27.91
69221;BME280;56331;51.992;20.910;2023-02-23T04:20:31;100566.80;;;21.16;28.06
69221;BME280;56331;51.992;20.910;2023-02-23T04:22:58;100565.77;;;21.15;28.00
69221;BME280;56331;51.992;20.910;2023-02-23T04:25:24;100571.05;;;21.14;28.03
69221;BME280;56331;51.992;20.910;2023-02-23T04:27:51;100570.50;;;21.14;28.12
69221;BME280;56331;51.992;20.910;2023-02-23T04:30:18;100573.81;;;21.14;28.14
69221;BME280;56331;51.992;20.910;2023-02-23T04:32:50;100564.96;;;21.14;28.16
69221;BME280;56331;51.992;20.910;2023-02-23T04:35:14;100569.12;;;21.14;28.18
69221;BME280;56331;51.992;20.910;2023-02-23T04:37:40;100560.80;;;21.14;28.17
69221;BME280;56331;51.992;20.910;2023-02-23T04:40:09;100561.93;;;21.13;28.17
69221;BME280;56331;51.992;20.910;2023-02-23T04:42:40;100562.73;;;21.14;28.16
69221;BME280;56331;51.992;20.910;2023-02-23T04:45:07;100565.51;;;21.14;28.23
69221;BME280;56331;51.992;20.910;2023-02-23T04:47:34;100564.70;;;21.13;28.24
69221;BME280;56331;51.992;20.910;2023-02-23T04:50:00;100562.19;;;21.14;28.34
69221;BME280;56331;51.992;20.910;2023-02-23T04:52:28;100559.97;;;21.14;28.36
69221;BME280;56331;51.992;20.910;2023-02-23T04:54:54;100554.42;;;21.14;28.46
69221;BME280;56331;51.992;20.910;2023-02-23T04:57:21;100557.20;;;21.14;28.56
69221;BME280;56331;51.992;20.910;2023-02-23T04:59:47;100557.45;;;21.15;28.64
69221;BME280;56331;51.992;20.910;2023-02-23T05:02:14;100552.49;;;21.14;28.66
69221;BME280;56331;51.992;20.910;2023-02-23T05:04:40;100552.23;;;21.13;28.72
69221;BME280;56331;51.992;20.910;2023-02-23T05:07:06;100550.84;;;21.13;28.72
69221;BME280;56331;51.992;20.910;2023-02-23T05:09:33;100552.23;;;21.13;28.77
69221;BME280;56331;51.992;20.910;2023-02-23T05:12:00;100555.00;;;21.13;28.83
69221;BME280;56331;51.992;20.910;2023-02-23T05:14:26;100554.42;;;21.14;28.85
69221;BME280;56331;51.992;20.910;2023-02-23T05:16:53;100559.73;;;21.13;28.91
69221;BME280;56331;51.992;20.910;2023-02-23T05:19:19;100549.23;;;21.12;28.85
69221;BME280;56331;51.992;20.910;2023-02-23T05:21:45;100548.97;;;21.11;28.85
69221;BME280;56331;51.992;20.910;2023-02-23T05:24:12;100550.94;;;21.11;28.87
69221;BME280;56331;51.992;20.910;2023-02-23T05:26:38;100550.13;;;21.10;29.01
69221;BME280;56331;51.992;20.910;2023-02-23T05:29:04;100553.70;;;21.11;28.96
69221;BME280;56331;51.992;20.910;2023-02-23T05:31:31;100548.17;;;21.11;29.06
69221;BME280;56331;51.992;20.910;2023-02-23T05:33:57;100554.28;;;21.10;29.13
69221;BME280;56331;51.992;20.910;2023-02-23T05:36:24;100552.91;;;21.10;29.23
69221;BME280;56331;51.992;20.910;2023-02-23T05:38:51;100546.55;;;21.10;29.26
69221;BME280;56331;51.992;20.910;2023-02-23T05:41:23;100554.05;;;21.09;29.26
69221;BME280;56331;51.992;20.910;2023-02-23T05:43:49;100552.09;;;21.10;29.25
69221;BME280;56331;51.992;20.910;2023-02-23T05:46:21;100556.83;;;21.09;29.32
69221;BME280;56331;51.992;20.910;2023-02-23T05:48:57;100558.21;;;21.09;29.40
69221;BME280;56331;51.992;20.910;2023-02-23T05:51:20;100558.21;;;21.09;29.43
69221;BME280;56331;51.992;20.910;2023-02-23T05:53:46;100561.88;;;21.07;29.42
69221;BME280;56331;51.992;20.910;2023-02-23T05:56:16;100549.41;;;21.07;29.53
69221;BME280;56331;51.992;20.910;2023-02-23T05:58:50;100558.30;;;21.07;29.65
69221;BME280;56331;51.992;20.910;2023-02-23T06:01:17;100553.56;;;21.07;29.64
69221;BME280;56331;51.992;20.910;2023-02-23T06:03:44;100555.76;;;21.08;29.60
69221;BME280;56331;51.992;20.910;2023-02-23T06:06:11;100556.34;;;21.07;29.31
69221;BME280;56331;51.992;20.910;2023-02-23T06:08:37;100553.80;;;21.08;29.21
69221;BME280;56331;51.992;20.910;2023-02-23T06:11:05;100555.44;;;21.09;29.10
69221;BME280;56331;51.992;20.910;2023-02-23T06:13:32;100554.60;;;21.09;29.10
69221;BME280;56331;51.992;20.910;2023-02-23T06:15:59;100558.21;;;21.09;29.02
69221;BME280;56331;51.992;20.910;2023-02-23T06:18:26;100558.44;;;21.10;29.08
69221;BME280;56331;51.992;20.910;2023-02-23T06:20:53;100561.21;;;21.10;28.99
69221;BME280;56331;51.992;20.910;2023-02-23T06:23:19;100562.02;;;21.11;28.98
69221;BME280;56331;51.992;20.910;2023-02-23T06:25:46;100559.83;;;21.10;28.92
69221;BME280;56331;51.992;20.910;2023-02-23T06:28:13;100556.48;;;21.11;29.00
69221;BME280;56331;51.992;20.910;2023-02-23T06:30:40;100559.51;;;21.12;29.03
69221;BME280;56331;51.992;20.910;2023-02-23T06:33:06;100572.78;;;21.12;29.03
69221;BME280;56331;51.992;20.910;2023-02-23T06:35:33;100574.74;;;21.12;29.01
69221;BME280;56331;51.992;20.910;2023-02-23T06:38:00;100569.20;;;21.12;28.98
69221;BME280;56331;51.992;20.910;2023-02-23T06:40:27;100570.02;;;21.12;28.90
69221;BME280;56331;51.992;20.910;2023-02-23T06:42:54;100568.63;;;21.12;28.94
69221;BME280;56331;51.992;20.910;2023-02-23T06:45:20;100567.81;;;21.12;28.92
69221;BME280;56331;51.992;20.910;2023-02-23T06:47:46;100569.75;;;21.11;28.91
69221;BME280;56331;51.992;20.910;2023-02-23T06:50:13;100568.37;;;21.11;28.92
69221;BME280;56331;51.992;20.910;2023-02-23T06:52:43;100561.44;;;21.11;28.98
69221;BME280;56331;51.992;20.910;2023-02-23T06:55:11;100562.59;;;21.10;28.93
69221;BME280;56331;51.992;20.910;2023-02-23T06:57:38;100570.33;;;21.11;28.94
69221;BME280;56331;51.992;20.910;2023-02-23T07:00:05;100572.29;;;21.10;28.94
69221;BME280;56331;51.992;20.910;2023-02-23T07:02:31;100571.14;;;21.11;28.91
69221;BME280;56331;51.992;20.910;2023-02-23T07:05:00;100568.94;;;21.11;28.94
69221;BME280;56331;51.992;20.910;2023-02-23T07:07:26;100571.14;;;21.11;29.00
69221;BME280;56331;51.992;20.910;2023-02-23T07:09:52;100574.48;;;21.11;28.96
69221;BME280;56331;51.992;20.910;2023-02-23T07:12:19;100570.33;;;21.11;28.96
69221;BME280;56331;51.992;20.910;2023-02-23T07:14:46;100573.09;;;21.11;29.00
69221;BME280;56331;51.992;20.910;2023-02-23T07:17:12;100570.33;;;21.11;29.14
69221;BME280;56331;51.992;20.910;2023-02-23T07:19:40;100560.89;;;21.12;29.04
69221;BME280;56331;51.992;20.910;2023-02-23T07:22:06;100560.89;;;21.12;28.96
69221;BME280;56331;51.992;20.910;2023-02-23T07:24:33;100563.09;;;21.12;28.99
69221;BME280;56331;51.992;20.910;2023-02-23T07:26:59;100561.35;;;21.14;29.05
69221;BME280;56331;51.992;20.910;2023-02-23T07:29:25;100556.39;;;21.13;29.03
69221;BME280;56331;51.992;20.910;2023-02-23T07:31:53;100555.27;;;21.14;28.95
69221;BME280;56331;51.992;20.910;2023-02-23T07:34:20;100553.30;;;21.15;28.90
69221;BME280;56331;51.992;20.910;2023-02-23T07:36:46;100556.07;;;21.15;28.93
69221;BME280;56331;51.992;20.910;2023-02-23T07:39:12;100547.98;;;21.16;28.93
69221;BME280;56331;51.992;20.910;2023-02-23T07:41:39;100546.61;;;21.16;29.51
69221;BME280;56331;51.992;20.910;2023-02-23T07:44:05;100544.09;;;21.17;29.95
69221;BME280;56331;51.992;20.910;2023-02-23T07:46:32;100544.81;;;21.20;30.29
69221;BME280;56331;51.992;20.910;2023-02-23T07:48:58;100548.06;;;21.22;30.40
69221;BME280;56331;51.992;20.910;2023-02-23T07:51:25;100538.37;;;21.22;30.44
69221;BME280;56331;51.992;20.910;2023-02-23T07:53:52;100539.98;;;21.23;30.34
69221;BME280;56331;51.992;20.910;2023-02-23T07:56:20;100541.86;;;21.25;30.25
69221;BME280;56331;51.992;20.910;2023-02-23T07:58:47;100539.09;;;21.25;30.33
69221;BME280;56331;51.992;20.910;2023-02-23T08:01:16;100540.92;;;21.27;30.40
69221;BME280;56331;51.992;20.910;2023-02-23T08:03:42;100534.84;;;21.28;30.43
69221;BME280;56331;51.992;20.910;2023-02-23T08:06:11;100535.87;;;21.29;30.45
69221;BME280;56331;51.992;20.910;2023-02-23T08:08:38;100533.02;;;21.32;30.45
69221;BME280;56331;51.992;20.910;2023-02-23T08:11:05;100528.28;;;21.32;30.57
69221;BME280;56331;51.992;20.910;2023-02-23T08:13:31;100523.80;;;21.34;30.62
69221;BME280;56331;51.992;20.910;2023-02-23T08:15:57;100522.64;;;21.35;30.63
69221;BME280;56331;51.992;20.910;2023-02-23T08:18:24;100520.36;;;21.37;30.66
69221;BME280;56331;51.992;20.910;2023-02-23T08:21:03;100518.91;;;21.39;30.65
69221;BME280;56331;51.992;20.910;2023-02-23T08:23:29;100521.94;;;21.40;30.73
69221;BME280;56331;51.992;20.910;2023-02-23T08:25:56;100516.85;;;21.43;30.77
69221;BME280;56331;51.992;20.910;2023-02-23T08:28:23;100514.56;;;21.45;30.86
69221;BME280;56331;51.992;20.910;2023-02-23T08:30:50;100516.66;;;21.48;30.84
69221;BME280;56331;51.992;20.910;2023-02-23T08:33:16;100505.58;;;21.48;30.90
69221;BME280;56331;51.992;20.910;2023-02-23T08:35:43;100510.70;;;21.52;30.99
69221;BME280;56331;51.992;20.910;2023-02-23T08:38:10;100507.03;;;21.54;31.19
69221;BME280;56331;51.992;20.910;2023-02-23T08:40:36;100506.94;;;21.56;31.27
69221;BME280;56331;51.992;20.910;2023-02-23T08:43:03;100501.84;;;21.58;31.46
69221;BME280;56331;51.992;20.910;2023-02-23T08:45:30;100497.36;;;21.60;31.77
69221;BME280;56331;51.992;20.910;2023-02-23T08:47:56;100501.91;;;21.65;31.89
69221;BME280;56331;51.992;20.910;2023-02-23T08:50:23;100499.62;;;21.67;32.45
69221;BME280;56331;51.992;20.910;2023-02-23T08:52:53;100500.33;;;21.70;32.22
69221;BME280;56331;51.992;20.910;2023-02-23T08:55:19;100494.69;;;21.72;32.18
69221;BME280;56331;51.992;20.910;2023-02-23T08:57:46;100492.39;;;21.74;32.20
69221;BME280;56331;51.992;20.910;2023-02-23T09:00:14;100494.48;;;21.77;32.24
69221;BME280;56331;51.992;20.910;2023-02-23T09:02:43;100495.42;;;21.81;32.74
69221;BME280;56331;51.992;20.910;2023-02-23T09:05:10;100488.74;;;21.82;32.54
69221;BME280;56331;51.992;20.910;2023-02-23T09:07:38;100490.84;;;21.85;32.68
69221;BME280;56331;51.992;20.910;2023-02-23T09:10:07;100487.70;;;21.87;32.67
69221;BME280;56331;51.992;20.910;2023-02-23T09:12:33;100483.45;;;21.90;32.68
69221;BME280;56331;51.992;20.910;2023-02-23T09:15:00;100476.19;;;21.91;32.71
69221;BME280;56331;51.992;20.910;2023-02-23T09:17:27;100474.80;;;21.91;32.78
69221;BME280;56331;51.992;20.910;2023-02-23T09:19:53;100480.47;;;21.95;32.77
69221;BME280;56331;51.992;20.910;2023-02-23T09:22:20;100477.15;;;21.95;32.81
69221;BME280;56331;51.992;20.910;2023-02-23T09:24:46;100477.05;;;21.98;32.86
69221;BME280;56331;51.992;20.910;2023-02-23T09:27:12;100479.72;;;22.00;32.85
69221;BME280;56331;51.992;20.910;2023-02-23T09:29:40;100470.56;;;22.00;32.91
69221;BME280;56331;51.992;20.910;2023-02-23T09:32:09;100471.63;;;22.01;32.98
69221;BME280;56331;51.992;20.910;2023-02-23T09:34:36;100466.08;;;22.01;33.04
69221;BME280;56331;51.992;20.910;2023-02-23T09:37:03;100466.55;;;22.03;32.89
69221;BME280;56331;51.992;20.910;2023-02-23T09:39:30;100466.20;;;22.05;32.57
69221;BME280;56331;51.992;20.910;2023-02-23T09:45:08;100449.55;;;22.05;32.18
69221;BME280;56331;51.992;20.910;2023-02-23T09:47:36;100453.72;;;22.05;31.78
69221;BME280;56331;51.992;20.910;2023-02-23T09:50:04;100444.94;;;22.03;31.38
69221;BME280;56331;51.992;20.910;2023-02-23T09:52:39;100448.52;;;22.03;31.13
69221;BME280;56331;51.992;20.910;2023-02-23T09:55:09;100443.20;;;22.04;30.85
69221;BME280;56331;51.992;20.910;2023-02-23T09:57:38;100445.39;;;22.05;30.62
69221;BME280;56331;51.992;20.910;2023-02-23T10:00:15;100439.84;;;22.05;30.43
69221;BME280;56331;51.992;20.910;2023-02-23T10:03:02;100438.70;;;22.06;30.45
69221;BME280;56331;51.992;20.910;2023-02-23T10:05:08;100438.13;;;22.06;30.49
69221;BME280;56331;51.992;20.910;2023-02-23T10:07:52;100434.55;;;22.06;30.52
69221;BME280;56331;51.992;20.910;2023-02-23T10:10:33;100437.22;;;22.09;30.37
69221;BME280;56331;51.992;20.910;2023-02-23T10:24:04;100418.39;;;22.14;30.10
69221;BME280;56331;51.992;20.910;2023-02-23T10:26:37;100414.45;;;22.15;30.09
69221;BME280;56331;51.992;20.910;2023-02-23T10:29:09;100414.45;;;22.15;30.11
69221;BME280;56331;51.992;20.910;2023-02-23T10:31:41;100409.71;;;22.16;30.00
69221;BME280;56331;51.992;20.910;2023-02-23T10:34:13;100408.22;;;22.18;29.97
69221;BME280;56331;51.992;20.910;2023-02-23T10:36:58;100397.12;;;22.18;29.98
69221;BME280;56331;51.992;20.910;2023-02-23T10:39:26;100391.27;;;22.20;30.12
69221;BME280;56331;51.992;20.910;2023-02-23T10:41:53;100385.94;;;22.21;30.30
69221;BME280;56331;51.992;20.910;2023-02-23T10:44:22;100377.06;;;22.21;30.46
69221;BME280;56331;51.992;20.910;2023-02-23T10:46:56;100375.91;;;22.22;30.61
69221;BME280;56331;51.992;20.910;2023-02-23T10:49:40;100371.96;;;22.23;30.75
69221;BME280;56331;51.992;20.910;2023-02-23T10:52:12;100369.19;;;22.23;30.93
69221;BME280;56331;51.992;20.910;2023-02-23T10:54:44;100365.50;;;22.25;31.08
69221;BME280;56331;51.992;20.910;2023-02-23T10:57:29;100363.30;;;22.25;31.27
69221;BME280;56331;51.992;20.910;2023-02-23T11:02:46;100352.09;;;22.27;31.49
69221;BME280;56331;51.992;20.910;2023-02-23T11:05:35;100346.77;;;22.28;31.64
69221;BME280;56331;51.992;20.910;2023-02-23T11:08:25;100340.66;;;22.29;31.75
69221;BME280;56331;51.992;20.910;2023-02-23T11:11:00;100335.34;;;22.30;31.83
69221;BME280;56331;51.992;20.910;2023-02-23T11:13:44;100331.17;;;22.30;31.91
69221;BME280;56331;51.992;20.910;2023-02-23T11:16:12;100327.81;;;22.31;32.00
69221;BME280;56331;51.992;20.910;2023-02-23T11:19:02;100327.59;;;22.30;32.12
69221;BME280;56331;51.992;20.910;2023-02-23T11:21:20;100328.62;;;22.31;32.21
69221;BME280;56331;51.992;20.910;2023-02-23T11:23:45;100324.70;;;22.32;32.24
69221;BME280;56331;51.992;20.910;2023-02-23T11:26:29;100313.61;;;22.32;32.37
69221;BME280;56331;51.992;20.910;2023-02-23T11:29:02;100320.18;;;22.34;32.39
69221;BME280;56331;51.992;20.910;2023-02-23T11:31:32;100312.66;;;22.34;32.50
69221;BME280;56331;51.992;20.910;2023-02-23T11:34:01;100301.34;;;22.33;32.46
69221;BME280;56331;51.992;20.910;2023-02-23T11:36:34;100302.14;;;22.34;32.42
69221;BME280;56331;51.992;20.910;2023-02-23T11:39:19;100306.30;;;22.34;32.31
69221;BME280;56331;51.992;20.910;2023-02-23T11:44:34;100284.58;;;22.36;32.01
69221;BME280;56331;51.992;20.910;2023-02-23T11:47:02;100286.77;;;22.36;31.87
69221;BME280;56331;51.992;20.910;2023-02-23T11:49:31;100286.19;;;22.37;31.94
69221;BME280;56331;51.992;20.910;2023-02-23T11:52:00;100275.45;;;22.35;32.01
69221;BME280;56331;51.992;20.910;2023-02-23T11:54:29;100271.50;;;22.36;32.12
69221;BME280;56331;51.992;20.910;2023-02-23T11:57:01;100274.53;;;22.37;32.26
69221;BME280;56331;51.992;20.910;2023-02-23T11:59:32;100270.00;;;22.39;32.30
69221;BME280;56331;51.992;20.910;2023-02-23T12:02:24;100263.06;;;22.39;32.42
69221;BME280;56331;51.992;20.910;2023-02-23T12:05:00;100257.52;;;22.39;32.48
69221;BME280;56331;51.992;20.910;2023-02-23T12:07:38;100255.31;;;22.38;32.49
69221;BME280;56331;51.992;20.910;2023-02-23T12:20:52;100236.47;;;22.38;32.29
69221;BME280;56331;51.992;20.910;2023-02-23T12:23:26;100231.73;;;22.38;32.07
69221;BME280;56331;51.992;20.910;2023-02-23T12:26:08;100231.39;;;22.40;31.82
69221;BME280;56331;51.992;20.910;2023-02-23T12:28:42;100216.68;;;22.39;31.61
69221;BME280;56331;51.992;20.910;2023-02-23T12:33:44;100219.92;;;22.41;31.43
69221;BME280;56331;51.992;20.910;2023-02-23T12:36:47;100211.59;;;22.41;31.36
69221;BME280;56331;51.992;20.910;2023-02-23T12:39:00;100214.63;;;22.42;31.33
69221;BME280;56331;51.992;20.910;2023-02-23T12:50:00;100193.81;;;22.42;31.37
69221;BME280;56331;51.992;20.910;2023-02-23T12:52:33;100191.58;;;22.42;31.37
69221;BME280;56331;51.992;20.910;2023-02-23T12:55:05;100186.28;;;22.43;31.27
69221;BME280;56331;51.992;20.910;2023-02-23T13:05:32;100176.66;;;22.46;31.10
69221;BME280;56331;51.992;20.910;2023-02-23T13:08:52;100169.14;;;22.47;31.18
69221;BME280;56331;51.992;20.910;2023-02-23T13:10:55;100166.61;;;22.48;31.23
69221;BME280;56331;51.992;20.910;2023-02-23T13:16:21;100159.31;;;22.49;31.47
69221;BME280;56331;51.992;20.910;2023-02-23T13:19:16;100160.36;;;22.51;31.61
69221;BME280;56331;51.992;20.910;2023-02-23T13:22:02;100154.34;;;22.49;31.77
69221;BME280;56331;51.992;20.910;2023-02-23T13:24:35;100155.98;;;22.50;31.93
69221;BME280;56331;51.992;20.910;2023-02-23T13:29:39;100144.63;;;22.49;32.02
69221;BME280;56331;51.992;20.910;2023-02-23T13:32:12;100143.23;;;22.49;32.08
69221;BME280;56331;51.992;20.910;2023-02-23T13:35:15;100147.66;;;22.50;32.17
69221;BME280;56331;51.992;20.910;2023-02-23T13:37:49;100138.16;;;22.51;32.21
69221;BME280;56331;51.992;20.910;2023-02-23T13:43:32;100132.02;;;22.52;32.39
69221;BME280;56331;51.992;20.910;2023-02-23T13:49:45;100126.83;;;22.50;32.83
69221;BME280;56331;51.992;20.910;2023-02-23T13:55:46;100122.67;;;22.50;33.09
69221;BME280;56331;51.992;20.910;2023-02-23T13:58:14;100119.30;;;22.50;33.22
69221;BME280;56331;51.992;20.910;2023-02-23T14:00:42;100119.30;;;22.50;33.43
69221;BME280;56331;51.992;20.910;2023-02-23T14:05:45;100112.70;;;22.49;33.80
69221;BME280;56331;51.992;20.910;2023-02-23T14:08:20;100113.17;;;22.51;33.97
69221;BME280;56331;51.992;20.910;2023-02-23T14:10:48;100110.86;;;22.53;34.04
69221;BME280;56331;51.992;20.910;2023-02-23T14:15:49;100101.94;;;22.54;34.06
69221;BME280;56331;51.992;20.910;2023-02-23T14:21:10;100100.43;;;22.56;34.09
69221;BME280;56331;51.992;20.910;2023-02-23T14:29:08;100086.64;;;22.60;34.17
69221;BME280;56331;51.992;20.910;2023-02-23T14:31:18;100078.91;;;22.59;34.30
69221;BME280;56331;51.992;20.910;2023-02-23T14:39:00;100078.31;;;22.60;34.24
69221;BME280;56331;51.992;20.910;2023-02-23T14:44:17;100065.11;;;22.63;33.95
69221;BME280;56331;51.992;20.910;2023-02-23T14:49:32;100061.99;;;22.64;33.68
69221;BME280;56331;51.992;20.910;2023-02-23T14:52:12;100054.84;;;22.63;33.67
69221;BME280;56331;51.992;20.910;2023-02-23T14:54:35;100051.47;;;22.64;33.59
69221;BME280;56331;51.992;20.910;2023-02-23T14:57:15;100056.78;;;22.63;33.62
69221;BME280;56331;51.992;20.910;2023-02-23T14:59:41;100052.06;;;22.63;33.46
69221;BME280;56331;51.992;20.910;2023-02-23T15:02:16;100042.55;;;22.64;33.39
69221;BME280;56331;51.992;20.910;2023-02-23T15:04:42;100040.83;;;22.66;33.25
69221;BME280;56331;51.992;20.910;2023-02-23T15:07:36;100035.27;;;22.66;33.11
69221;BME280;56331;51.992;20.910;2023-02-23T15:10:07;100036.08;;;22.66;33.00
69221;BME280;56331;51.992;20.910;2023-02-23T15:12:35;100030.52;;;22.66;32.90
69221;BME280;56331;51.992;20.910;2023-02-23T15:15:06;100032.72;;;22.67;32.84
69221;BME280;56331;51.992;20.910;2023-02-23T15:17:36;100030.52;;;22.66;32.71